Roaring Creek, North Carolina
Current Conditions -  °F | °C
As of 7:55 PM on Tuesday 21 Oct 2014 (Local Time) from KTNB Reporting Station
Clear Clear  
Wind Chill: 41°   Ceiling: Unl
Heat Index: 47°   Visibility: 10mi
Dew Point: 34°   Wind: 17mph
Humidity: 59%   Direction: 320°NW
Pressure: 29.99"   Gusts: 26mph
Location:  36.0227°N, 81.9499°W
Report Text: KTNB 212355Z AUTO 32015G23KT 10SM CLR 09/01 A2999 RMK AO2 T00860011 10133 20086
Loading
Personal Weather Stations






























Interactive Weather Map
Tropical Storm Tracking
New forecast layout! Learn more

10-Day Weather Forecast

Advertisements
Track Severe Weather on mobile